Couderay, WI (54828)

8:27 AM CDT on August 05, 2015 (GMT -0500)
Callahan Lake | | Change Station
CLOSE
Current Station
Personal Weather Station
Location: Hayward, WI
Elevation: 1358 ft
Nearby Weather Stations

Elev 1358 ft 45.99 °N, 91.24 °W | Updated 3 seconds ago

Clear
Clear
55.8 °F
Feels Like 55.8 °F
N
0.9
Wind Variable Wind from SSW
Gusts 2.5 mph

Today
High -- | Low -- °F
--% Chance of Precip.
Yesterday
High -- | Low -- °F
Precip. -- in
5:52 AM 8:29 PM
Waning Gibbous, 67% visible
Pressure 30.10 in
Visibility 10.0 miles
Clouds Few 4600 ft
Dew Point 53 °F
Humidity 91%
Rainfall 0.00 in
Snow Depth Not available.
UV 1.0 out of 12
Pollen 7.30 out of 12
Air Quality Not available.
Flu Activity Not available.
METAR KHYR 051253Z AUTO 02004KT 10SM FEW046 13/11 A3010 RMK AO2 SLP193 T01280106

More Conditions Fewer Conditions

Pressure 30.10 in
Visibility 10.0 miles
Clouds Few 4600 ft
Dew Point 53 °F
Humidity 91%
Rainfall 0.00 in
Snow Depth Not available.
UV 1.0 out of 12
Pollen 7.30 out of 12
Air Quality Not available.
Flu Activity Not available.
METAR KHYR 051253Z AUTO 02004KT 10SM FEW046 13/11 A3010 RMK AO2 SLP193 T01280106

More Conditions Fewer Conditions

10-Day Weather Forecast

×

Almanac

Astronomy

Aug. 05, 2015 Rise Set
Actual Time
Civil Twilight
Nautical Twilight
Astronomical Twilight
Moon
Length of Visible Light
Length of Day
Tomorrow will be .
, % of the Moon is Illuminated

Today's Extremes

State Highs State Lows

Community

WunderPhotos

Upload Photos

1,844,185 photos uploaded!

WunderBlogs® & News

Nearby

Air Quality

  Air Quality AQ Index Pollutant
Not available.

Snow Depth

Station Depth Elevation

Earthquake Activity

City Distance Mag. Time & Date
Minimum magnitude displayed is 2.5.

Coastal Water Temperatures

Place Temperature

Stations

Nearby Weather Stations

Station Location Temp. Windchill Dew Point Humidity Wind Precip. Elev Updated Type